Hopkinsville, KY

6:27 AM CST on December 07, 2016 (GMT -0600)
Coxmill rd | | Change Station

Elev 554 ft 36.85 °N, 87.51 °W | Updated 10 minutes ago

Overcast
Overcast
31.2 °F
Feels Like 31 °F
N
0.0
Wind Variable Wind from NNE
Gusts 0.0 mph

Today
High -- | Low -- °F
--% Chance of Precip.
Yesterday
High -- | Low -- °F
Precip. -- in
Pressure 30.18 in
Visibility 7.0 miles
Clouds Overcast 9000 ft
Windchill 31 °F
Dew Point 31 °F
Humidity 98%
Rainfall 0.00 in
Snow Depth Not available.
6:49 AM 4:33 PM
First Quarter, 52% visible
METAR KHOP 071158Z AUTO 00000KT 7SM OVC090 01/01 A3016 RMK AO2 SLP219 70077 T00090007 10038 20003 50013
Pressure 30.18 in
Visibility 7.0 miles
Clouds Overcast 9000 ft
Windchill 31 °F
Dew Point 31 °F
Humidity 98%
Rainfall 0.00 in
Snow Depth Not available.
6:49 AM 4:33 PM
First Quarter, 52% visible
METAR KHOP 071158Z AUTO 00000KT 7SM OVC090 01/01 A3016 RMK AO2 SLP219 70077 T00090007 10038 20003 50013

10-Day Weather Forecast

Almanac

Astronomy

Dec. 07, 2016 Rise Set
Actual Time
Civil Twilight
Nautical Twilight
Astronomical Twilight
Moon
Length of Visible Light
Length of Day
Tomorrow will be .
, % of the Moon is Illuminated

Today's Extremes

State Highs State Lows

Community

WunderPhotos

Upload Photos

1,956,111 photos uploaded!

WunderBlog® & News

Nearby

Air Quality

  Air Quality AQ Index Pollutant
Not available.

Snow Depth

Station Depth Elevation

Earthquake Activity

City Distance Mag. Time & Date
Minimum magnitude displayed is 2.5.

Coastal Water Temperatures

Place Temperature

Stations

Nearby Weather Stations

Station Location Temp. Windchill Dew Point Humidity Wind Precip. Elev Updated Type
                   

Watches & Warnings

There are currently no watches in effect.